Time;durP1;ratioP1;P1;durP2;ratioP2;P2;SDS_P1;SDS_P2;PMS_P1;PMS_P2;Temp;Humidity;BMP_temperature;BMP_pressure;BME280_temperature;BME280_humidity;BME280_pressure;Samples;Min_cycle;Max_cycle;Signal;HPM_P1;HPM_P2
2023/01/04 00:01:22;;;;;;;13.27;2.70;;;25.70;69.10;;;;;;5047796;28;20172;-70
2023/01/04 00:03:49;;;;;;;11.50;3.10;;;25.70;69.60;;;;;;5045135;28;20191;-71
2023/01/04 00:06:17;;;;;;;14.10;3.03;;;25.40;70.20;;;;;;5047700;28;20176;-71
2023/01/04 00:08:45;;;;;;;14.07;2.60;;;25.40;70.60;;;;;;5051284;28;20554;-71
2023/01/04 00:11:18;;;;;;;7.87;1.90;;;25.40;70.40;;;;;;5049721;28;20586;-71
2023/01/04 00:13:47;;;;;;;9.57;2.13;;;25.50;70.50;;;;;;5043840;28;20699;-71
2023/01/04 00:16:21;;;;;;;9.83;2.80;;;25.60;69.80;;;;;;5053182;28;20266;-71
2023/01/04 00:18:49;;;;;;;11.57;2.80;;;25.50;69.70;;;;;;5051092;28;20184;-71
2023/01/04 00:21:27;;;;;;;16.30;2.90;;;25.60;70.20;;;;;;5051090;28;20176;-71
2023/01/04 00:23:57;;;;;;;12.53;3.07;;;25.70;70.00;;;;;;5047591;28;20266;-72
2023/01/04 00:26:30;;;;;;;18.80;3.20;;;25.50;70.40;;;;;;5049812;28;20211;-71
2023/01/04 00:29:06;;;;;;;12.80;2.87;;;25.60;70.20;;;;;;5032348;28;20215;-71
2023/01/04 00:31:34;;;;;;;9.17;2.17;;;25.60;70.20;;;;;;5033194;28;20220;-71
2023/01/04 00:34:03;;;;;;;12.93;2.93;;;25.60;69.60;;;;;;5042155;28;20552;-71
2023/01/04 00:36:32;;;;;;;10.13;2.50;;;25.60;70.30;;;;;;5043001;28;20223;-71
2023/01/04 00:39:06;;;;;;;10.93;2.80;;;25.60;70.90;;;;;;5045326;28;20274;-70
2023/01/04 00:41:38;;;;;;;14.93;2.83;;;25.30;72.60;;;;;;5040090;28;20240;-70
2023/01/04 00:44:06;;;;;;;7.30;2.60;;;25.00;73.50;;;;;;5043700;28;20581;-70
2023/01/04 00:46:34;;;;;;;9.13;2.67;;;24.80;74.50;;;;;;5051869;28;20195;-71
2023/01/04 00:49:02;;;;;;;13.00;3.40;;;24.50;75.80;;;;;;5050767;28;20184;-71
2023/01/04 00:51:30;;;;;;;9.33;2.57;;;24.40;76.40;;;;;;5051245;28;20269;-70
2023/01/04 00:54:02;;;;;;;13.57;3.07;;;24.40;76.50;;;;;;5052139;28;20206;-70
2023/01/04 00:56:30;;;;;;;11.57;2.80;;;24.30;76.90;;;;;;5049789;28;20196;-70
2023/01/04 00:58:59;;;;;;;11.67;2.90;;;24.00;77.40;;;;;;5040134;28;20192;-72
2023/01/04 01:01:28;;;;;;;14.37;2.93;;;23.90;78.10;;;;;;5051788;28;20180;-70
2023/01/04 01:03:57;;;;;;;12.93;3.27;;;23.90;78.40;;;;;;5051314;28;20220;-70
2023/01/04 01:06:26;;;;;;;14.43;2.60;;;23.80;78.50;;;;;;5051960;28;20207;-70
2023/01/04 01:08:53;;;;;;;14.23;2.93;;;23.60;79.10;;;;;;5052660;28;20191;-70
2023/01/04 01:11:21;;;;;;;13.37;2.80;;;23.40;79.80;;;;;;5055141;28;20215;-70
2023/01/04 01:13:49;;;;;;;10.83;2.80;;;23.30;80.40;;;;;;5054757;28;20198;-70
2023/01/04 01:16:20;;;;;;;10.90;2.93;;;23.30;80.50;;;;;;5054818;28;20184;-69
2023/01/04 01:18:47;;;;;;;13.67;3.50;;;23.30;80.60;;;;;;5054844;28;20212;-70
2023/01/04 01:21:24;;;;;;;8.00;2.77;;;23.20;81.10;;;;;;5055004;28;20541;-70
2023/01/04 01:23:53;;;;;;;13.90;3.67;;;23.10;81.20;;;;;;5055318;28;20167;-70
2023/01/04 01:26:23;;;;;;;14.43;4.20;;;23.00;81.60;;;;;;5053927;28;20673;-71
2023/01/04 01:28:51;;;;;;;14.17;3.17;;;23.00;82.20;;;;;;5055047;28;20249;-72
2023/01/04 01:31:21;;;;;;;12.67;2.90;;;22.90;83.30;;;;;;5053950;28;20686;-69
2023/01/04 01:33:50;;;;;;;14.53;3.23;;;22.90;83.80;;;;;;5054220;28;20207;-70
2023/01/04 01:36:19;;;;;;;13.40;3.07;;;22.90;84.00;;;;;;5054875;28;20649;-73
2023/01/04 01:38:46;;;;;;;14.17;4.00;;;22.90;84.50;;;;;;5054680;28;20179;-70
2023/01/04 01:41:34;;;;;;;12.50;3.30;;;22.90;84.60;;;;;;5054453;28;20267;-70
2023/01/04 01:44:20;;;;;;;9.03;2.53;;;23.20;84.20;;;;;;5054836;28;20707;-71
2023/01/04 01:46:51;;;;;;;11.17;2.90;;;23.50;83.00;;;;;;5048829;28;20179;-69
2023/01/04 01:49:24;;;;;;;14.47;2.87;;;23.80;82.30;;;;;;5053196;28;20187;-70
2023/01/04 01:51:55;;;;;;;14.23;3.03;;;24.30;79.80;;;;;;5054114;28;20255;-70
2023/01/04 01:54:27;;;;;;;14.73;6.93;;;24.80;79.20;;;;;;5054647;28;20223;-70
2023/01/04 01:56:59;;;;;;;12.27;4.03;;;25.10;77.10;;;;;;5055034;28;20171;-69
2023/01/04 01:59:29;;;;;;;8.47;2.57;;;25.40;75.50;;;;;;5054221;28;20743;-69
2023/01/04 02:01:56;;;;;;;7.63;2.63;;;25.40;74.90;;;;;;5053495;28;20301;-70
2023/01/04 02:04:24;;;;;;;7.70;2.07;;;25.80;75.80;;;;;;5054051;28;20258;-69
2023/01/04 02:06:55;;;;;;;5.40;2.27;;;26.00;73.50;;;;;;5054852;28;20508;-70
2023/01/04 02:09:23;;;;;;;9.40;2.80;;;26.50;72.90;;;;;;5053447;28;20180;-69
2023/01/04 02:11:50;;;;;;;9.03;2.30;;;26.40;72.50;;;;;;5054457;28;20666;-70
2023/01/04 02:14:28;;;;;;;8.40;2.27;;;26.40;72.00;;;;;;5054586;28;20178;-70
2023/01/04 02:17:10;;;;;;;8.93;2.40;;;26.00;73.90;;;;;;5054583;28;20209;-71
2023/01/04 02:19:41;;;;;;;9.30;2.63;;;26.00;73.60;;;;;;5054379;28;20634;-73
2023/01/04 02:22:17;;;;;;;9.70;4.63;;;25.90;73.70;;;;;;5054033;28;20184;-69
2023/01/04 02:25:10;;;;;;;6.90;2.80;;;25.80;74.80;;;;;;5054375;28;20693;-72
2023/01/04 02:27:43;;;;;;;7.83;2.57;;;25.80;74.50;;;;;;5054301;28;20176;-70
2023/01/04 02:30:22;;;;;;;11.93;2.93;;;25.80;74.00;;;;;;5054378;28;20581;-71
2023/01/04 02:33:25;;;;;;;8.27;2.57;;;25.80;74.30;;;;;;5054475;28;20634;-71
2023/01/04 02:36:36;;;;;;;11.60;3.00;;;25.80;74.80;;;;;;5054323;28;20186;-71
2023/01/04 02:39:28;;;;;;;10.07;3.20;;;25.80;74.50;;;;;;5052779;28;20270;-72
2023/01/04 02:42:19;;;;;;;8.17;2.60;;;25.30;75.10;;;;;;5054198;28;20539;-71
2023/01/04 02:45:00;;;;;;;10.43;3.13;;;24.90;76.40;;;;;;5053813;28;20184;-71
2023/01/04 02:50:34;;;;;;;14.47;5.60;;;24.30;79.20;;;;;;5054045;28;20321;-70
2023/01/04 02:53:13;;;;;;;11.73;3.10;;;24.20;79.40;;;;;;5034132;28;20177;-71
2023/01/04 02:55:55;;;;;;;9.77;3.00;;;24.20;79.70;;;;;;5044870;28;20176;-69
2023/01/04 02:58:44;;;;;;;8.20;3.30;;;24.10;80.00;;;;;;5053625;28;20184;-72
2023/01/04 03:08:07;;;;;;;9.70;3.10;;;23.70;83.90;;;;;;5053621;28;20731;-71
2023/01/04 03:13:57;;;;;;;15.27;9.20;;;23.10;86.20;;;;;;5052903;28;20234;-73
2023/01/04 03:16:25;;;;;;;9.77;3.73;;;22.90;86.80;;;;;;5053672;28;20530;-72
2023/01/04 03:18:57;;;;;;;9.40;3.33;;;22.80;87.20;;;;;;5053293;28;20642;-72
2023/01/04 03:21:27;;;;;;;9.33;3.13;;;22.80;88.20;;;;;;5053063;28;20642;-71
2023/01/04 03:35:59;;;;;;;6.97;2.67;;;22.60;87.10;;;;;;5051176;28;20679;-73
2023/01/04 03:51:15;;;;;;;13.37;3.93;;;22.30;88.50;;;;;;5038271;28;20215;-72
2023/01/04 03:53:55;;;;;;;11.73;4.07;;;22.30;89.40;;;;;;5048654;28;20186;-71
2023/01/04 03:56:24;;;;;;;12.63;4.10;;;22.10;90.20;;;;;;5053108;28;20304;-72
2023/01/04 03:58:53;;;;;;;12.13;3.97;;;21.90;90.70;;;;;;5052288;28;20214;-70
2023/01/04 04:01:23;;;;;;;10.37;3.90;;;21.90;90.90;;;;;;5052856;28;20270;-73
2023/01/04 04:09:20;;;;;;;14.70;4.93;;;21.80;91.40;;;;;;5052401;28;20186;-71
2023/01/04 04:11:48;;;;;;;8.77;5.13;;;21.80;91.60;;;;;;5052646;28;20576;-71
2023/01/04 04:14:15;;;;;;;11.70;4.83;;;21.90;91.60;;;;;;5060260;28;20259;-70
2023/01/04 04:16:42;;;;;;;12.93;5.10;;;21.90;91.70;;;;;;5051411;28;20210;-72
2023/01/04 04:19:10;;;;;;;13.83;4.57;;;22.00;91.60;;;;;;5052392;28;20179;-73
2023/01/04 04:21:37;;;;;;;10.77;4.10;;;22.20;91.60;;;;;;5052607;28;20638;-70
2023/01/04 04:24:05;;;;;;;11.60;4.40;;;22.30;91.40;;;;;;5052528;28;20255;-71
2023/01/04 04:26:33;;;;;;;6.37;3.57;;;22.30;91.40;;;;;;5052587;28;20666;-70
2023/01/04 04:29:00;;;;;;;12.33;3.50;;;22.30;91.10;;;;;;5053434;28;20172;-72
2023/01/04 04:31:27;;;;;;;7.00;3.40;;;22.10;90.80;;;;;;5072404;28;20218;-71
2023/01/04 04:33:55;;;;;;;15.33;4.17;;;22.00;90.70;;;;;;5049459;28;21172;-72
2023/01/04 04:36:22;;;;;;;12.73;4.93;;;22.00;90.80;;;;;;5051328;28;20680;-71
2023/01/04 04:38:49;;;;;;;11.57;4.40;;;22.10;90.80;;;;;;5052237;28;20229;-71
2023/01/04 04:44:02;;;;;;;11.90;4.50;;;22.00;90.70;;;;;;5051028;28;20221;-72
2023/01/04 04:46:29;;;;;;;10.20;3.40;;;22.00;90.50;;;;;;5055225;28;20187;-72
2023/01/04 04:48:57;;;;;;;8.33;3.50;;;21.90;90.20;;;;;;5049712;28;20172;-72
2023/01/04 04:51:24;;;;;;;12.77;3.43;;;21.90;90.20;;;;;;5055982;28;20238;-72
2023/01/04 04:53:52;;;;;;;6.97;3.30;;;21.80;90.20;;;;;;5054946;28;20183;-73
2023/01/04 04:56:19;;;;;;;11.20;3.97;;;21.80;90.50;;;;;;5054195;28;20195;-71
2023/01/04 04:58:48;;;;;;;7.13;2.83;;;21.80;90.70;;;;;;5054406;28;20223;-73
2023/01/04 05:01:15;;;;;;;10.13;3.30;;;21.80;90.60;;;;;;5053967;28;20191;-73
2023/01/04 05:03:43;;;;;;;11.47;3.67;;;21.80;90.60;;;;;;5052928;28;20653;-74
2023/01/04 05:06:10;;;;;;;12.23;3.43;;;21.70;90.90;;;;;;5046468;28;20188;-74
2023/01/04 05:08:37;;;;;;;12.67;3.17;;;21.60;90.70;;;;;;5054247;28;20631;-73
2023/01/04 05:11:10;;;;;;;9.13;3.00;;;21.50;90.70;;;;;;5055909;28;20215;-72
2023/01/04 05:13:38;;;;;;;7.80;3.20;;;21.60;91.00;;;;;;5037007;28;20585;-73
2023/01/04 05:16:06;;;;;;;10.40;2.90;;;21.50;90.80;;;;;;5036091;28;20260;-73
2023/01/04 05:18:34;;;;;;;10.07;3.53;;;21.50;91.00;;;;;;5044576;28;20187;-73
2023/01/04 05:21:01;;;;;;;8.43;2.90;;;21.60;91.20;;;;;;5049643;28;20728;-77
2023/01/04 05:23:29;;;;;;;10.47;2.90;;;21.40;90.70;;;;;;5047891;28;20187;-72
2023/01/04 05:26:02;;;;;;;12.67;3.33;;;21.30;90.70;;;;;;5055001;28;20188;-73
2023/01/04 05:28:30;;;;;;;10.87;2.97;;;21.40;91.00;;;;;;5056139;28;20180;-70
2023/01/04 05:30:57;;;;;;;11.53;3.57;;;21.40;90.80;;;;;;5051935;28;20212;-72
2023/01/04 05:33:28;;;;;;;9.57;2.97;;;21.50;90.70;;;;;;5052471;28;20590;-70
2023/01/04 05:35:57;;;;;;;12.57;3.20;;;21.40;90.60;;;;;;5055675;28;20186;-71
2023/01/04 05:38:25;;;;;;;10.73;2.90;;;21.40;90.70;;;;;;5052866;28;20210;-71
2023/01/04 05:40:53;;;;;;;11.07;2.63;;;21.40;90.90;;;;;;5052116;28;20211;-73
2023/01/04 05:43:23;;;;;;;8.93;3.10;;;21.40;90.50;;;;;;5050353;28;20533;-70
2023/01/04 05:45:52;;;;;;;18.23;3.20;;;21.20;90.60;;;;;;5054027;28;20179;-71
2023/01/04 05:48:21;;;;;;;14.10;2.73;;;21.10;90.60;;;;;;5053121;28;20214;-71
2023/01/04 05:50:49;;;;;;;13.87;2.77;;;21.10;90.90;;;;;;5054173;28;20212;-71
2023/01/04 05:53:17;;;;;;;11.93;3.00;;;21.00;90.80;;;;;;5050419;28;20207;-70
2023/01/04 05:55:47;;;;;;;11.73;2.83;;;21.00;90.70;;;;;;5052513;28;20176;-71
2023/01/04 05:58:15;;;;;;;9.03;2.83;;;21.00;90.80;;;;;;5053931;28;20180;-72
2023/01/04 06:00:42;;;;;;;13.50;3.20;;;21.10;90.90;;;;;;5055050;28;20176;-71
2023/01/04 06:03:09;;;;;;;6.27;1.93;;;21.10;90.80;;;;;;5054179;28;20164;-72
2023/01/04 06:05:37;;;;;;;6.43;1.97;;;21.10;90.40;;;;;;5054274;28;20183;-72
2023/01/04 06:08:04;;;;;;;5.50;1.63;;;21.00;90.40;;;;;;5048804;28;20176;-71
2023/01/04 06:10:32;;;;;;;6.27;2.10;;;21.00;90.60;;;;;;5044408;28;20281;-74
2023/01/04 06:12:59;;;;;;;9.20;2.10;;;20.90;90.20;;;;;;5034906;28;20177;-73
2023/01/04 06:15:26;;;;;;;6.87;2.10;;;20.90;90.20;;;;;;5048804;28;20176;-75
2023/01/04 06:17:53;;;;;;;5.53;1.90;;;20.80;89.90;;;;;;5050206;28;20177;-72
2023/01/04 06:20:21;;;;;;;4.33;1.60;;;20.80;90.10;;;;;;5048742;28;21245;-71
2023/01/04 06:22:48;;;;;;;8.60;1.83;;;20.70;90.40;;;;;;5047504;28;20271;-70
2023/01/04 06:25:16;;;;;;;6.07;1.60;;;20.70;90.40;;;;;;5054010;28;20182;-69
2023/01/04 06:27:43;;;;;;;6.07;1.50;;;20.70;90.40;;;;;;5052176;28;20632;-74
2023/01/04 06:30:11;;;;;;;5.70;2.10;;;20.70;90.60;;;;;;5041843;28;20188;-72
2023/01/04 06:32:38;;;;;;;6.30;1.60;;;20.80;90.70;;;;;;5053726;28;20188;-72
2023/01/04 06:35:06;;;;;;;3.73;1.60;;;20.70;90.60;;;;;;5047519;28;20191;-71
2023/01/04 06:37:34;;;;;;;9.27;1.70;;;20.70;90.90;;;;;;5048123;28;20188;-72
2023/01/04 06:40:02;;;;;;;5.60;1.73;;;20.60;90.90;;;;;;5048656;28;20702;-73
2023/01/04 06:42:44;;;;;;;8.07;1.80;;;20.50;91.00;;;;;;5053596;28;20242;-70
2023/01/04 06:45:14;;;;;;;6.87;1.83;;;20.30;91.00;;;;;;5052999;28;20184;-72
2023/01/04 06:47:42;;;;;;;7.47;2.20;;;20.30;91.30;;;;;;5053260;28;20187;-72
2023/01/04 06:50:09;;;;;;;8.40;2.73;;;20.30;91.40;;;;;;5056645;28;20190;-73
2023/01/04 06:52:37;;;;;;;6.03;1.90;;;20.30;91.50;;;;;;5052661;28;20223;-71
2023/01/04 06:55:05;;;;;;;6.17;1.90;;;20.30;91.70;;;;;;5052178;28;20180;-72
2023/01/04 06:57:33;;;;;;;7.73;1.90;;;20.20;91.50;;;;;;5052816;28;20176;-69
2023/01/04 07:00:00;;;;;;;7.33;2.20;;;20.20;91.50;;;;;;5048269;28;20233;-70
2023/01/04 07:02:27;;;;;;;6.47;3.00;;;20.10;91.50;;;;;;5037509;28;20239;-70
2023/01/04 07:04:54;;;;;;;10.17;2.73;;;20.10;91.80;;;;;;5051285;28;20187;-70
2023/01/04 07:07:22;;;;;;;10.37;2.40;;;20.20;91.80;;;;;;5052201;28;20957;-70
2023/01/04 07:09:49;;;;;;;13.77;3.10;;;20.10;91.70;;;;;;5053197;28;20582;-70
2023/01/04 07:12:16;;;;;;;10.90;2.50;;;20.10;91.80;;;;;;5052929;28;20223;-69
2023/01/04 07:14:44;;;;;;;11.07;2.80;;;20.00;91.70;;;;;;5052638;28;20222;-71
2023/01/04 07:17:11;;;;;;;12.53;3.03;;;20.00;91.90;;;;;;5043266;28;20661;-70
2023/01/04 07:19:39;;;;;;;12.47;2.90;;;20.00;92.00;;;;;;5052081;28;20650;-71
2023/01/04 07:22:06;;;;;;;10.93;3.33;;;19.90;92.00;;;;;;5053195;28;20228;-70
2023/01/04 07:24:33;;;;;;;12.23;4.33;;;19.90;92.20;;;;;;5053324;28;20184;-72
2023/01/04 07:27:01;;;;;;;9.93;2.80;;;20.00;92.30;;;;;;5052985;28;20630;-69
2023/01/04 07:29:28;;;;;;;10.43;3.00;;;19.90;92.30;;;;;;5050819;28;20183;-70
2023/01/04 07:31:56;;;;;;;12.47;2.37;;;19.90;92.20;;;;;;5042891;28;20220;-69
2023/01/04 07:34:25;;;;;;;9.23;2.57;;;19.70;92.00;;;;;;5048390;28;20203;-68
2023/01/04 07:36:52;;;;;;;8.63;1.77;;;19.80;92.10;;;;;;5052891;28;20784;-69
2023/01/04 07:39:20;;;;;;;10.53;2.67;;;19.90;92.00;;;;;;5052634;28;20195;-70
2023/01/04 07:41:48;;;;;;;10.40;2.13;;;20.00;92.00;;;;;;5052277;28;20192;-68
2023/01/04 07:44:20;;;;;;;7.43;2.10;;;20.10;91.90;;;;;;5052590;28;20207;-69
2023/01/04 07:46:48;;;;;;;6.57;1.93;;;20.30;91.90;;;;;;5049079;28;20180;-70
2023/01/04 07:49:17;;;;;;;8.13;2.33;;;20.30;91.70;;;;;;5046090;28;20270;-70
2023/01/04 07:51:46;;;;;;;12.07;2.67;;;20.50;91.80;;;;;;5052566;28;20239;-69
2023/01/04 07:54:17;;;;;;;14.57;3.00;;;20.40;91.30;;;;;;5064066;28;20225;-69
2023/01/04 07:56:45;;;;;;;14.70;3.87;;;20.50;91.20;;;;;;5052421;28;20680;-69
2023/01/04 07:59:13;;;;;;;17.63;3.07;;;20.50;91.40;;;;;;5050488;28;20832;-70
2023/01/04 08:01:41;;;;;;;25.27;4.60;;;20.30;91.30;;;;;;5049575;28;20270;-70
2023/01/04 08:04:10;;;;;;;16.30;4.00;;;20.30;91.30;;;;;;5032930;28;20173;-69
2023/01/04 08:06:38;;;;;;;17.73;3.50;;;20.20;91.50;;;;;;5037935;28;20192;-69
2023/01/04 08:09:07;;;;;;;12.20;2.93;;;20.10;91.40;;;;;;5038816;28;20180;-70
2023/01/04 08:11:34;;;;;;;15.17;3.40;;;20.10;91.60;;;;;;5032850;28;20218;-68
2023/01/04 08:14:02;;;;;;;15.07;3.27;;;20.10;91.70;;;;;;5052270;28;20180;-69
2023/01/04 08:16:36;;;;;;;19.20;2.90;;;20.20;91.70;;;;;;5051974;28;20225;-71
2023/01/04 08:19:12;;;;;;;10.57;2.63;;;20.10;91.50;;;;;;5055668;28;20175;-70
2023/01/04 08:21:40;;;;;;;7.47;2.53;;;19.90;91.40;;;;;;5059216;28;20254;-70
2023/01/04 08:24:11;;;;;;;11.93;2.70;;;19.90;91.50;;;;;;5045725;28;20176;-70
2023/01/04 08:26:39;;;;;;;14.00;2.93;;;19.80;91.60;;;;;;5054442;28;20213;-72
2023/01/04 08:29:06;;;;;;;8.73;2.50;;;19.80;91.60;;;;;;5047298;28;20713;-71
2023/01/04 08:31:34;;;;;;;12.00;3.00;;;19.90;91.70;;;;;;5059177;28;20250;-74
2023/01/04 08:34:04;;;;;;;10.03;2.60;;;19.80;91.60;;;;;;5054679;28;20229;-71
2023/01/04 08:36:34;;;;;;;12.13;2.87;;;19.80;91.40;;;;;;5058846;28;20172;-71
2023/01/04 08:39:04;;;;;;;11.40;2.93;;;19.80;91.50;;;;;;5058625;28;20241;-70
2023/01/04 08:41:49;;;;;;;14.17;3.27;;;19.80;91.50;;;;;;5058257;28;20258;-72
2023/01/04 08:44:18;;;;;;;11.50;3.10;;;19.80;91.50;;;;;;5059227;28;20622;-71
2023/01/04 08:46:46;;;;;;;8.23;2.50;;;19.80;91.50;;;;;;5058636;28;20188;-68
2023/01/04 08:49:13;;;;;;;8.83;2.20;;;19.70;91.20;;;;;;5058599;28;20713;-68
2023/01/04 08:51:41;;;;;;;6.43;2.20;;;19.60;91.30;;;;;;5058016;28;20227;-70
2023/01/04 08:54:09;;;;;;;9.70;2.43;;;19.60;91.20;;;;;;5058550;28;20179;-71
2023/01/04 08:56:37;;;;;;;8.60;2.20;;;19.60;91.20;;;;;;5057987;28;20692;-73
2023/01/04 08:59:05;;;;;;;10.03;2.87;;;19.70;91.30;;;;;;5058153;28;20642;-72
2023/01/04 09:01:33;;;;;;;6.73;2.03;;;19.70;91.40;;;;;;5058615;28;20196;-72
2023/01/04 09:04:01;;;;;;;7.50;1.97;;;19.70;91.20;;;;;;5057595;28;20184;-71
2023/01/04 09:06:29;;;;;;;5.53;1.80;;;19.60;91.20;;;;;;5058695;28;20183;-74
2023/01/04 09:08:57;;;;;;;5.63;2.30;;;19.60;91.20;;;;;;5057471;28;20180;-71
2023/01/04 09:11:26;;;;;;;7.80;1.67;;;19.60;91.40;;;;;;5058515;28;20214;-71
2023/01/04 09:13:58;;;;;;;8.97;1.83;;;19.60;91.30;;;;;;5057928;28;20575;-71
2023/01/04 09:16:26;;;;;;;7.17;1.97;;;19.60;91.20;;;;;;5058485;28;20188;-73
2023/01/04 09:18:55;;;;;;;6.93;1.90;;;19.60;91.40;;;;;;5053799;28;20188;-72
2023/01/04 09:21:22;;;;;;;7.23;2.10;;;19.50;91.30;;;;;;5058076;28;20192;-71
2023/01/04 09:23:50;;;;;;;5.63;1.73;;;19.50;91.10;;;;;;5056920;28;20194;-73
2023/01/04 09:26:23;;;;;;;6.10;2.00;;;19.40;91.10;;;;;;5058422;28;20188;-72
2023/01/04 09:28:52;;;;;;;5.37;1.80;;;19.40;91.10;;;;;;5058160;28;20670;-73
2023/01/04 09:31:22;;;;;;;7.10;1.63;;;19.40;91.10;;;;;;5052694;28;20234;-72
2023/01/04 09:33:50;;;;;;;3.70;1.63;;;19.40;91.10;;;;;;5054429;28;20195;-71
2023/01/04 09:36:19;;;;;;;5.67;1.80;;;19.40;91.10;;;;;;5054394;28;20176;-72
2023/01/04 09:38:46;;;;;;;5.80;2.03;;;19.40;91.20;;;;;;5048337;28;20631;-71
2023/01/04 09:41:13;;;;;;;5.17;2.03;;;19.30;91.30;;;;;;5040887;28;20184;-71
2023/01/04 09:43:53;;;;;;;4.37;1.73;;;19.30;91.40;;;;;;5050422;28;20183;-72
2023/01/04 09:46:36;;;;;;;5.57;2.40;;;19.20;91.50;;;;;;5053118;28;20184;-72
2023/01/04 09:49:19;;;;;;;6.17;2.20;;;19.20;91.70;;;;;;5048405;28;20281;-71
2023/01/04 09:51:56;;;;;;;14.30;2.67;;;19.10;91.60;;;;;;5049264;28;20244;-71
2023/01/04 09:54:29;;;;;;;11.87;2.83;;;19.10;91.80;;;;;;5051097;28;20260;-70
2023/01/04 09:56:58;;;;;;;4.80;2.00;;;19.00;91.70;;;;;;5052621;28;20184;-71
2023/01/04 09:59:31;;;;;;;6.20;2.30;;;19.00;91.80;;;;;;5049327;28;20184;-71
2023/01/04 10:02:11;;;;;;;5.47;2.20;;;19.00;91.80;;;;;;5048585;28;20184;-72
2023/01/04 10:04:49;;;;;;;7.80;2.47;;;19.00;91.80;;;;;;5053736;28;20202;-71
2023/01/04 10:07:30;;;;;;;6.10;2.30;;;19.10;91.90;;;;;;5046049;28;20181;-70
2023/01/04 10:09:59;;;;;;;5.60;2.30;;;19.00;91.80;;;;;;5051667;28;20676;-71
2023/01/04 10:12:38;;;;;;;6.03;2.27;;;19.10;91.90;;;;;;5050413;28;20224;-72
2023/01/04 10:15:11;;;;;;;6.07;2.20;;;19.10;91.80;;;;;;5046493;28;20262;-74
2023/01/04 10:17:56;;;;;;;5.20;1.80;;;19.10;91.70;;;;;;5044581;28;20226;-76
2023/01/04 10:20:52;;;;;;;5.97;2.30;;;19.00;91.70;;;;;;5040967;28;20184;-74
2023/01/04 10:23:42;;;;;;;5.47;2.20;;;19.10;91.50;;;;;;5050290;28;20540;-72
2023/01/04 10:26:17;;;;;;;5.03;1.90;;;19.00;91.40;;;;;;5047037;28;20187;-73
2023/01/04 10:29:12;;;;;;;4.70;2.27;;;19.00;91.20;;;;;;5052939;28;20818;-71
2023/01/04 10:31:48;;;;;;;8.77;2.10;;;19.00;90.90;;;;;;5054103;28;20214;-73
2023/01/04 10:34:22;;;;;;;6.30;1.97;;;19.10;90.90;;;;;;5053743;28;20218;-70
2023/01/04 10:36:51;;;;;;;4.03;1.90;;;19.10;90.80;;;;;;5052523;28;20549;-71
2023/01/04 10:39:24;;;;;;;5.63;1.93;;;19.00;90.50;;;;;;5053381;28;20204;-71
2023/01/04 10:41:58;;;;;;;4.03;1.70;;;19.10;90.40;;;;;;5053682;28;20266;-68
2023/01/04 10:44:29;;;;;;;4.87;2.00;;;19.10;90.30;;;;;;5054553;28;20163;-69
2023/01/04 10:47:25;;;;;;;6.60;2.17;;;19.10;90.40;;;;;;5049447;28;20180;-71
2023/01/04 10:50:02;;;;;;;4.40;1.70;;;19.10;90.30;;;;;;5051902;28;20192;-70
2023/01/04 10:52:44;;;;;;;6.03;1.63;;;19.20;90.40;;;;;;5051964;28;20231;-71
2023/01/04 10:55:16;;;;;;;7.47;1.70;;;19.10;90.30;;;;;;5052249;28;20176;-71
2023/01/04 10:57:47;;;;;;;4.87;1.70;;;19.10;90.10;;;;;;5053776;28;20274;-73
2023/01/04 11:00:28;;;;;;;7.33;1.70;;;19.10;90.30;;;;;;5054146;28;20519;-73
2023/01/04 11:03:06;;;;;;;5.63;1.47;;;19.20;90.40;;;;;;5052778;28;20182;-73
2023/01/04 11:05:47;;;;;;;3.50;1.63;;;19.10;89.80;;;;;;5053381;28;20183;-72
2023/01/04 11:08:20;;;;;;;6.43;1.63;;;19.00;89.60;;;;;;5048612;28;20192;-72
2023/01/04 11:10:59;;;;;;;3.77;1.30;;;19.00;89.20;;;;;;5052155;28;20265;-76
2023/01/04 11:13:27;;;;;;;3.20;1.47;;;18.90;88.80;;;;;;5048113;28;20645;-74
2023/01/04 11:15:55;;;;;;;5.60;1.67;;;19.00;88.90;;;;;;5051587;28;20184;-72
2023/01/04 11:18:23;;;;;;;3.60;1.40;;;19.00;88.90;;;;;;5052821;28;20183;-71
2023/01/04 11:20:50;;;;;;;7.47;2.20;;;19.00;88.50;;;;;;5052750;28;20192;-70
2023/01/04 11:23:19;;;;;;;6.73;1.80;;;18.90;88.40;;;;;;5051664;28;20647;-73
2023/01/04 11:25:55;;;;;;;5.73;1.40;;;18.90;88.20;;;;;;5053056;28;20228;-74
2023/01/04 11:28:57;;;;;;;7.67;1.80;;;18.90;88.50;;;;;;5053226;28;20203;-72
2023/01/04 11:31:42;;;;;;;4.40;1.57;;;18.90;88.70;;;;;;5052036;28;20622;-78
2023/01/04 11:34:09;;;;;;;8.80;2.33;;;18.90;89.20;;;;;;5055605;28;20183;-73
2023/01/04 11:36:41;;;;;;;8.50;1.97;;;18.90;89.20;;;;;;5052959;28;20214;-75
2023/01/04 11:39:19;;;;;;;9.40;2.10;;;18.80;89.10;;;;;;5051419;28;20176;-72
2023/01/04 11:42:04;;;;;;;12.57;2.30;;;18.80;89.40;;;;;;5040574;28;20519;-71
2023/01/04 11:44:35;;;;;;;5.77;2.40;;;18.80;89.50;;;;;;5052667;28;20639;-72
2023/01/04 11:47:27;;;;;;;5.33;2.30;;;18.80;89.70;;;;;;5049535;28;20558;-75
2023/01/04 11:49:55;;;;;;;9.90;2.33;;;18.90;90.10;;;;;;5038726;28;20187;-76
2023/01/04 11:52:34;;;;;;;15.03;3.20;;;18.90;90.20;;;;;;5048812;28;20227;-75
2023/01/04 11:55:27;;;;;;;7.33;2.00;;;18.80;90.30;;;;;;5051877;28;20180;-76
2023/01/04 11:58:13;;;;;;;10.43;2.53;;;18.80;90.40;;;;;;5040038;28;20191;-75
2023/01/04 12:00:53;;;;;;;12.63;2.13;;;18.80;90.40;;;;;;5052130;28;20175;-74
2023/01/04 12:03:29;;;;;;;10.87;2.67;;;18.80;90.30;;;;;;5052520;28;20613;-72
2023/01/04 12:05:58;;;;;;;11.10;2.23;;;18.70;90.50;;;;;;5052620;28;20171;-76
2023/01/04 12:08:36;;;;;;;5.53;1.90;;;18.70;90.30;;;;;;5052719;28;20179;-71
2023/01/04 12:11:05;;;;;;;10.13;2.33;;;18.70;90.30;;;;;;5052663;28;20306;-70
2023/01/04 12:13:38;;;;;;;9.57;2.77;;;18.70;90.10;;;;;;5052379;28;20203;-71
2023/01/04 12:16:31;;;;;;;8.37;2.50;;;18.70;90.20;;;;;;5051885;28;20190;-72
2023/01/04 12:18:59;;;;;;;7.53;1.70;;;18.60;89.70;;;;;;5052315;28;20183;-73
2023/01/04 12:21:27;;;;;;;13.77;2.33;;;18.60;89.30;;;;;;5051902;28;20551;-72
2023/01/04 12:23:55;;;;;;;7.07;1.83;;;18.60;89.20;;;;;;5050895;28;20176;-70
2023/01/04 12:26:22;;;;;;;6.80;1.63;;;18.60;88.90;;;;;;5053053;28;20184;-70
2023/01/04 12:29:11;;;;;;;8.83;1.80;;;18.60;88.60;;;;;;5052525;28;20172;-71
2023/01/04 12:31:39;;;;;;;6.57;1.77;;;18.60;88.20;;;;;;5052054;28;20673;-71
2023/01/04 12:34:26;;;;;;;5.70;2.00;;;18.60;88.20;;;;;;5052357;28;20189;-71
2023/01/04 12:36:55;;;;;;;4.37;1.57;;;18.70;88.20;;;;;;5052246;28;20207;-71
2023/01/04 12:39:23;;;;;;;8.60;1.80;;;18.70;88.20;;;;;;5051756;28;20184;-70
2023/01/04 12:42:04;;;;;;;3.77;1.50;;;18.80;88.30;;;;;;5052421;28;20175;-70
2023/01/04 12:44:38;;;;;;;7.07;1.80;;;18.70;88.20;;;;;;5051167;28;20704;-69
2023/01/04 12:50:15;;;;;;;5.07;1.67;;;18.70;88.00;;;;;;5042760;28;20728;-70
2023/01/04 12:52:46;;;;;;;6.50;1.77;;;18.80;88.00;;;;;;5051244;28;20231;-69
2023/01/04 12:55:51;;;;;;;9.63;1.97;;;18.60;87.90;;;;;;5051038;28;20207;-70
2023/01/04 12:58:28;;;;;;;9.53;1.90;;;18.70;88.00;;;;;;5043666;28;20187;-72
2023/01/04 13:00:55;;;;;;;11.90;2.10;;;18.70;88.10;;;;;;5051374;28;20187;-70
2023/01/04 13:03:23;;;;;;;11.37;2.07;;;18.70;88.10;;;;;;5051630;28;20276;-71
2023/01/04 13:06:02;;;;;;;8.23;2.30;;;18.70;88.00;;;;;;5054590;28;20176;-70
2023/01/04 13:08:34;;;;;;;8.87;2.40;;;18.70;88.00;;;;;;5047474;28;20590;-70
2023/01/04 13:11:03;;;;;;;10.17;2.70;;;18.70;88.10;;;;;;5054309;28;20208;-73
2023/01/04 13:14:20;;;;;;;6.90;2.13;;;18.70;88.20;;;;;;5055264;28;20296;-74
2023/01/04 13:17:03;;;;;;;12.13;2.80;;;18.70;88.10;;;;;;5054134;28;20191;-70
2023/01/04 13:19:31;;;;;;;8.33;2.50;;;18.70;88.10;;;;;;5055112;28;20175;-72
2023/01/04 13:21:59;;;;;;;10.27;2.80;;;18.70;88.20;;;;;;5055614;28;20240;-69
2023/01/04 13:24:33;;;;;;;7.90;2.40;;;18.70;88.40;;;;;;5055894;28;20180;-73
2023/01/04 13:27:09;;;;;;;13.73;3.10;;;18.80;88.40;;;;;;5054652;28;20220;-73
2023/01/04 13:29:37;;;;;;;11.73;2.97;;;18.80;88.60;;;;;;5051521;28;20183;-73
2023/01/04 13:32:10;;;;;;;12.73;2.40;;;18.80;88.60;;;;;;5043951;28;20250;-70
2023/01/04 13:34:55;;;;;;;13.57;2.90;;;18.80;88.70;;;;;;5051795;28;20584;-74
2023/01/04 13:37:27;;;;;;;10.53;3.00;;;18.80;89.30;;;;;;5050968;28;20188;-71
2023/01/04 13:40:22;;;;;;;15.33;3.40;;;19.00;88.90;;;;;;5049939;28;20197;-71
2023/01/04 13:43:11;;;;;;;15.23;3.50;;;19.10;89.10;;;;;;5053134;28;20180;-73
2023/01/04 13:45:50;;;;;;;16.97;3.07;;;19.10;88.90;;;;;;5054534;28;20180;-71
2023/01/04 13:48:21;;;;;;;8.73;2.80;;;19.00;89.20;;;;;;5055392;28;20584;-71
2023/01/04 13:51:25;;;;;;;9.07;2.90;;;18.90;89.60;;;;;;5052367;28;20615;-72
2023/01/04 13:53:58;;;;;;;14.17;3.27;;;18.80;89.90;;;;;;5052358;28;20197;-70
2023/01/04 13:56:31;;;;;;;11.37;3.33;;;18.80;90.10;;;;;;5053638;28;20631;-70
2023/01/04 13:58:59;;;;;;;13.70;3.50;;;18.70;90.60;;;;;;5055009;28;20214;-71